Aegean Tiffany — SVAE9 — position and weather

sailwx.info

Track history (hours):
 
Tides and Currents Weather Stations Pressure Air Temp Water Temp Dewpoint Dewpoint Depression Visibility Wind Speed Wind Dir Waves Ship Positions

Aegean Tiffany

Last reported at 2017-Aug-16 21:14 UTC. Time now 2017-Aug-19 05:31 UTC.
Position N 37°54' E 023°05'.

Length 80 m; draft 5.2 m.

Type: Tanker. MMSI: 240870000.

Date/timePositionNaut miles runAvg speedWind from/ knotsBaromVisibWave heightAir tempDewpointWater temp
2017-Aug-16 21:14N 37°54' E 023°05'3 7.7
2017-Aug-16 20:47N 37°54' E 023°09'2 8.0
2017-Aug-16 20:30N 37°55' E 023°12'4 7.9
2017-Aug-16 20:00N 37°56' E 023°17'4 7.7
2017-Aug-16 19:30N 37°57' E 023°21'4 7.7
2017-Aug-16 19:01N 37°58' E 023°26'3 5.5
2017-Aug-16 18:30N 38°00' E 023°27'4 7.6
2017-Aug-16 18:00N 38°02' E 023°32'0 0.8
2017-Aug-16 17:30N 38°02' E 023°32'0 0.0
2017-Aug-16 10:10N 38°02' E 023°32'0 0.0
2017-Aug-16 10:01N 38°02' E 023°32'0 0.0
2017-Aug-16 09:31N 38°02' E 023°32'0 0.0
2017-Aug-16 09:01N 38°02' E 023°32'0 0.0
2017-Aug-16 08:31N 38°02' E 023°32'0 0.0
2017-Aug-16 08:01N 38°02' E 023°32'0 0.0
2017-Aug-16 07:31N 38°02' E 023°32'0 0.0
2017-Aug-16 07:01N 38°02' E 023°32'0 0.0
2017-Aug-16 06:31N 38°02' E 023°32'0 0.0
2017-Aug-15 07:04N 38°02' E 023°32'0 0.1
2017-Aug-15 07:00N 38°02' E 023°32'0 0.5
2017-Aug-15 06:30N 38°02' E 023°32'1 1.6
2017-Aug-15 06:00N 38°02' E 023°31'0 0.0
2017-Aug-15 05:31N 38°02' E 023°31'0 0.0
2017-Aug-15 05:00N 38°02' E 023°31'0 0.0
2017-Aug-15 04:30N 38°02' E 023°31'0 0.0
2017-Aug-15 04:00N 38°02' E 023°31'0 0.0
2017-Aug-15 03:30N 38°02' E 023°31'0 0.0
2017-Aug-15 03:01N 38°02' E 023°31'0 0.0
2017-Aug-15 02:30N 38°02' E 023°31'0 0.0
2017-Aug-15 02:00N 38°02' E 023°31'0 0.0
2017-Aug-15 01:30N 38°02' E 023°31'0 0.0
2017-Aug-15 01:00N 38°02' E 023°31'0 0.0
2017-Aug-15 00:31N 38°02' E 023°31'0 0.0
2017-Aug-15 00:00N 38°02' E 023°31'0 0.0
2017-Aug-14 23:30N 38°02' E 023°31'0 0.0
2017-Aug-14 23:00N 38°02' E 023°31'0 0.0
2017-Aug-14 22:30N 38°02' E 023°31'0 0.0
2017-Aug-14 22:00N 38°02' E 023°31'0 0.0
2017-Aug-14 21:30N 38°02' E 023°31'0 0.0
2017-Aug-14 21:00N 38°02' E 023°31'0 0.0
2017-Aug-14 20:31N 38°02' E 023°31'0 0.0
2017-Aug-14 20:00N 38°02' E 023°31'0 0.0
2017-Aug-14 19:30N 38°02' E 023°31'0 0.0
2017-Aug-14 19:00N 38°02' E 023°31'0 0.0
2017-Aug-14 18:30N 38°02' E 023°31'1 2.0
2017-Aug-14 18:00N 38°02' E 023°32'0 0.0
2017-Aug-14 17:30N 38°02' E 023°32'0 0.0
2017-Aug-14 06:19N 38°02' E 023°32'0 0.0
2017-Aug-14 06:01N 38°02' E 023°32'2 3.1
2017-Aug-14 05:31N 38°01' E 023°30'4 7.7
2017-Aug-14 05:00N 37°60' E 023°26'3 5.4
2017-Aug-14 04:30N 37°57' E 023°24'4 8.1
2017-Aug-14 04:00N 37°56' E 023°19'4 7.8
2017-Aug-14 03:30N 37°56' E 023°15'4 7.8
2017-Aug-14 03:00N 37°55' E 023°10'  
2017-Aug-10 21:46N 37°55' E 023°11'2 7.4
2017-Aug-10 21:30N 37°55' E 023°13'4 7.3
2017-Aug-10 21:00N 37°56' E 023°18'4 7.2
2017-Aug-10 20:30N 37°57' E 023°22'3 6.3
2017-Aug-10 20:00N 37°58' E 023°26'3 5.2
2017-Aug-10 19:30N 38°00' E 023°28'4 7.3
2017-Aug-10 19:00N 38°02' E 023°32'0 0.6
2017-Aug-10 18:30N 38°02' E 023°32'0 0.0
2017-Aug-10 11:27N 38°02' E 023°32'0 0.0
2017-Aug-10 11:00N 38°02' E 023°32'0 0.4
2017-Aug-10 10:31N 38°02' E 023°32'1 1.7
2017-Aug-10 10:00N 38°02' E 023°31'0 0.0
2017-Aug-10 09:30N 38°02' E 023°31'0 0.0
2017-Aug-10 09:00N 38°02' E 023°31'0 0.0
2017-Aug-10 08:30N 38°02' E 023°31'0 0.0
2017-Aug-10 08:00N 38°02' E 023°31'0 0.0
2017-Aug-10 07:30N 38°02' E 023°31'0 0.0
2017-Aug-10 07:00N 38°02' E 023°31'0 0.0
2017-Aug-10 06:30N 38°02' E 023°31'0 0.0
2017-Aug-10 06:00N 38°02' E 023°31'0 0.0
2017-Aug-10 05:30N 38°02' E 023°31'0 0.0
2017-Aug-10 05:00N 38°02' E 023°31'0 0.0
2017-Aug-10 04:30N 38°02' E 023°31'0 0.0
2017-Aug-10 04:00N 38°02' E 023°31'0 0.0
2017-Aug-10 03:30N 38°02' E 023°31'0 0.0
2017-Aug-10 03:01N 38°02' E 023°31'0 0.0
2017-Aug-10 02:30N 38°02' E 023°31'0 0.3
2017-Aug-10 02:01N 38°02' E 023°31'0 0.8
2017-Aug-10 01:30N 38°02' E 023°31'0 0.0
2017-Aug-10 01:00N 38°02' E 023°31'0 0.0
2017-Aug-10 00:30N 38°02' E 023°31'0 0.0
2017-Aug-10 00:00N 38°02' E 023°31'3 5.3
2017-Aug-09 23:30N 38°02' E 023°35'1 1.6
2017-Aug-09 23:00N 38°02' E 023°36'0 0.0
2017-Aug-09 22:30N 38°02' E 023°36'0 0.0
2017-Aug-09 22:00N 38°02' E 023°36'0 0.0
2017-Aug-09 21:30N 38°02' E 023°36'0 0.0
2017-Aug-09 21:00N 38°02' E 023°36'0 0.0
2017-Aug-09 20:30N 38°02' E 023°36'0 0.0
2017-Aug-09 20:00N 38°02' E 023°36'0 0.0
2017-Aug-09 19:30N 38°02' E 023°36'0 0.0
2017-Aug-09 19:00N 38°02' E 023°36'0 0.0
2017-Aug-09 18:30N 38°02' E 023°36'0 0.0
2017-Aug-09 18:00N 38°02' E 023°36'0 0.0
2017-Aug-09 17:30N 38°02' E 023°36'0 0.0
2017-Aug-09 17:00N 38°02' E 023°36'0 0.0
2017-Aug-09 16:30N 38°02' E 023°36'0 0.0
2017-Aug-09 16:00N 38°02' E 023°36'0 0.0
2017-Aug-09 15:30N 38°02' E 023°36'0 0.6
2017-Aug-09 15:00N 38°02' E 023°35'0 0.0
2017-Aug-09 14:30N 38°02' E 023°35'0 0.0
2017-Aug-09 14:00N 38°02' E 023°35'0 0.0
2017-Aug-09 13:30N 38°02' E 023°35'0 0.1
2017-Aug-09 13:00N 38°02' E 023°35'0 0.0
2017-Aug-09 12:30N 38°02' E 023°35'0 0.0
2017-Aug-09 12:00N 38°02' E 023°35'0 0.0
2017-Aug-09 11:31N 38°02' E 023°35'0 0.0
2017-Aug-09 11:00N 38°02' E 023°35'0 0.0
2017-Aug-09 10:30N 38°02' E 023°35'0 0.0
2017-Aug-09 10:00N 38°02' E 023°35'2 4.8
2017-Aug-09 09:30N 37°60' E 023°33'3 5.6
2017-Aug-09 09:00N 37°57' E 023°34'2 4.2
2017-Aug-09 08:30N 37°57' E 023°37'0 0.0
2017-Aug-09 08:00N 37°57' E 023°37'0 0.0
2017-Aug-09 07:30N 37°57' E 023°37'0 0.0
2017-Aug-09 07:00N 37°57' E 023°37'0 0.0
2017-Aug-09 06:30N 37°57' E 023°37'0 0.0
2017-Aug-09 06:00N 37°57' E 023°37'0 0.0
2017-Aug-09 05:30N 37°57' E 023°37'0 0.0
2017-Aug-09 05:00N 37°57' E 023°37'0 0.1
2017-Aug-09 04:30N 37°57' E 023°37'4 7.0
2017-Aug-09 04:00N 37°58' E 023°33'4 8.0
2017-Aug-09 03:31N 38°02' E 023°32'0 0.2
2017-Aug-09 03:00N 38°02' E 023°32'0 0.0
2017-Aug-09 02:30N 38°02' E 023°32'0 0.0
2017-Aug-08 16:30N 38°02' E 023°32'0 1.0
2017-Aug-08 16:00N 38°02' E 023°31'4 7.5
2017-Aug-08 15:30N 38°00' E 023°27'2 5.0
2017-Aug-08 15:01N 37°58' E 023°26'4 7.5
2017-Aug-08 14:30N 37°57' E 023°21'4 7.8
2017-Aug-08 14:00N 37°56' E 023°16'4 7.6
2017-Aug-08 13:27N 37°55' E 023°11'  
Track history (hours):
 
Tides and Currents Weather Stations Pressure Air Temp Water Temp Dewpoint Dewpoint Depression Visibility Wind Speed Wind Dir Waves Ship Positions

Aegean Tiffany

Last reported at 2017-Aug-16 21:14 UTC. Time now 2017-Aug-19 05:31 UTC.
Position N 37°54' E 023°05'.

Length 80 m; draft 5.2 m.

Type: Tanker. MMSI: 240870000.

Date/timePositionNaut miles runAvg speedWind from/ knotsBaromVisibWave heightAir tempDewpointWater temp
2017-Aug-16 21:14N 37°54' E 023°05'3 7.7
2017-Aug-16 20:47N 37°54' E 023°09'2 8.0
2017-Aug-16 20:30N 37°55' E 023°12'4 7.9
2017-Aug-16 20:00N 37°56' E 023°17'4 7.7
2017-Aug-16 19:30N 37°57' E 023°21'4 7.7
2017-Aug-16 19:01N 37°58' E 023°26'3 5.5
2017-Aug-16 18:30N 38°00' E 023°27'4 7.6
2017-Aug-16 18:00N 38°02' E 023°32'0 0.8
2017-Aug-16 17:30N 38°02' E 023°32'0 0.0
2017-Aug-16 10:10N 38°02' E 023°32'0 0.0
2017-Aug-16 10:01N 38°02' E 023°32'0 0.0
2017-Aug-16 09:31N 38°02' E 023°32'0 0.0
2017-Aug-16 09:01N 38°02' E 023°32'0 0.0
2017-Aug-16 08:31N 38°02' E 023°32'0 0.0
2017-Aug-16 08:01N 38°02' E 023°32'0 0.0
2017-Aug-16 07:31N 38°02' E 023°32'0 0.0
2017-Aug-16 07:01N 38°02' E 023°32'0 0.0
2017-Aug-16 06:31N 38°02' E 023°32'0 0.0
2017-Aug-15 07:04N 38°02' E 023°32'0 0.1
2017-Aug-15 07:00N 38°02' E 023°32'0 0.5
2017-Aug-15 06:30N 38°02' E 023°32'1 1.6
2017-Aug-15 06:00N 38°02' E 023°31'0 0.0
2017-Aug-15 05:31N 38°02' E 023°31'0 0.0
2017-Aug-15 05:00N 38°02' E 023°31'0 0.0
2017-Aug-15 04:30N 38°02' E 023°31'0 0.0
2017-Aug-15 04:00N 38°02' E 023°31'0 0.0
2017-Aug-15 03:30N 38°02' E 023°31'0 0.0
2017-Aug-15 03:01N 38°02' E 023°31'0 0.0
2017-Aug-15 02:30N 38°02' E 023°31'0 0.0
2017-Aug-15 02:00N 38°02' E 023°31'0 0.0
2017-Aug-15 01:30N 38°02' E 023°31'0 0.0
2017-Aug-15 01:00N 38°02' E 023°31'0 0.0
2017-Aug-15 00:31N 38°02' E 023°31'0 0.0
2017-Aug-15 00:00N 38°02' E 023°31'0 0.0
2017-Aug-14 23:30N 38°02' E 023°31'0 0.0
2017-Aug-14 23:00N 38°02' E 023°31'0 0.0
2017-Aug-14 22:30N 38°02' E 023°31'0 0.0
2017-Aug-14 22:00N 38°02' E 023°31'0 0.0
2017-Aug-14 21:30N 38°02' E 023°31'0 0.0
2017-Aug-14 21:00N 38°02' E 023°31'0 0.0
2017-Aug-14 20:31N 38°02' E 023°31'0 0.0
2017-Aug-14 20:00N 38°02' E 023°31'0 0.0
2017-Aug-14 19:30N 38°02' E 023°31'0 0.0
2017-Aug-14 19:00N 38°02' E 023°31'0 0.0
2017-Aug-14 18:30N 38°02' E 023°31'1 2.0
2017-Aug-14 18:00N 38°02' E 023°32'0 0.0
2017-Aug-14 17:30N 38°02' E 023°32'0 0.0
2017-Aug-14 06:19N 38°02' E 023°32'0 0.0
2017-Aug-14 06:01N 38°02' E 023°32'2 3.1
2017-Aug-14 05:31N 38°01' E 023°30'4 7.7
2017-Aug-14 05:00N 37°60' E 023°26'3 5.4
2017-Aug-14 04:30N 37°57' E 023°24'4 8.1
2017-Aug-14 04:00N 37°56' E 023°19'4 7.8
2017-Aug-14 03:30N 37°56' E 023°15'4 7.8
2017-Aug-14 03:00N 37°55' E 023°10'  
2017-Aug-10 21:46N 37°55' E 023°11'2 7.4
2017-Aug-10 21:30N 37°55' E 023°13'4 7.3
2017-Aug-10 21:00N 37°56' E 023°18'4 7.2
2017-Aug-10 20:30N 37°57' E 023°22'3 6.3
2017-Aug-10 20:00N 37°58' E 023°26'3 5.2
2017-Aug-10 19:30N 38°00' E 023°28'4 7.3
2017-Aug-10 19:00N 38°02' E 023°32'0 0.6
2017-Aug-10 18:30N 38°02' E 023°32'0 0.0
2017-Aug-10 11:27N 38°02' E 023°32'0 0.0
2017-Aug-10 11:00N 38°02' E 023°32'0 0.4
2017-Aug-10 10:31N 38°02' E 023°32'1 1.7
2017-Aug-10 10:00N 38°02' E 023°31'0 0.0
2017-Aug-10 09:30N 38°02' E 023°31'0 0.0
2017-Aug-10 09:00N 38°02' E 023°31'0 0.0
2017-Aug-10 08:30N 38°02' E 023°31'0 0.0
2017-Aug-10 08:00N 38°02' E 023°31'0 0.0
2017-Aug-10 07:30N 38°02' E 023°31'0 0.0
2017-Aug-10 07:00N 38°02' E 023°31'0 0.0
2017-Aug-10 06:30N 38°02' E 023°31'0 0.0
2017-Aug-10 06:00N 38°02' E 023°31'0 0.0
2017-Aug-10 05:30N 38°02' E 023°31'0 0.0
2017-Aug-10 05:00N 38°02' E 023°31'0 0.0
2017-Aug-10 04:30N 38°02' E 023°31'0 0.0
2017-Aug-10 04:00N 38°02' E 023°31'0 0.0
2017-Aug-10 03:30N 38°02' E 023°31'0 0.0
2017-Aug-10 03:01N 38°02' E 023°31'0 0.0
2017-Aug-10 02:30N 38°02' E 023°31'0 0.3
2017-Aug-10 02:01N 38°02' E 023°31'0 0.8
2017-Aug-10 01:30N 38°02' E 023°31'0 0.0
2017-Aug-10 01:00N 38°02' E 023°31'0 0.0
2017-Aug-10 00:30N 38°02' E 023°31'0 0.0
2017-Aug-10 00:00N 38°02' E 023°31'3 5.3
2017-Aug-09 23:30N 38°02' E 023°35'1 1.6
2017-Aug-09 23:00N 38°02' E 023°36'0 0.0
2017-Aug-09 22:30N 38°02' E 023°36'0 0.0
2017-Aug-09 22:00N 38°02' E 023°36'0 0.0
2017-Aug-09 21:30N 38°02' E 023°36'0 0.0
2017-Aug-09 21:00N 38°02' E 023°36'0 0.0
2017-Aug-09 20:30N 38°02' E 023°36'0 0.0
2017-Aug-09 20:00N 38°02' E 023°36'0 0.0
2017-Aug-09 19:30N 38°02' E 023°36'0 0.0
2017-Aug-09 19:00N 38°02' E 023°36'0 0.0
2017-Aug-09 18:30N 38°02' E 023°36'0 0.0
2017-Aug-09 18:00N 38°02' E 023°36'0 0.0
2017-Aug-09 17:30N 38°02' E 023°36'0 0.0
2017-Aug-09 17:00N 38°02' E 023°36'0 0.0
2017-Aug-09 16:30N 38°02' E 023°36'0 0.0
2017-Aug-09 16:00N 38°02' E 023°36'0 0.0
2017-Aug-09 15:30N 38°02' E 023°36'0 0.6
2017-Aug-09 15:00N 38°02' E 023°35'0 0.0
2017-Aug-09 14:30N 38°02' E 023°35'0 0.0
2017-Aug-09 14:00N 38°02' E 023°35'0 0.0
2017-Aug-09 13:30N 38°02' E 023°35'0 0.1
2017-Aug-09 13:00N 38°02' E 023°35'0 0.0
2017-Aug-09 12:30N 38°02' E 023°35'0 0.0
2017-Aug-09 12:00N 38°02' E 023°35'0 0.0
2017-Aug-09 11:31N 38°02' E 023°35'0 0.0
2017-Aug-09 11:00N 38°02' E 023°35'0 0.0
2017-Aug-09 10:30N 38°02' E 023°35'0 0.0
2017-Aug-09 10:00N 38°02' E 023°35'2 4.8
2017-Aug-09 09:30N 37°60' E 023°33'3 5.6
2017-Aug-09 09:00N 37°57' E 023°34'2 4.2
2017-Aug-09 08:30N 37°57' E 023°37'0 0.0
2017-Aug-09 08:00N 37°57' E 023°37'0 0.0
2017-Aug-09 07:30N 37°57' E 023°37'0 0.0
2017-Aug-09 07:00N 37°57' E 023°37'0 0.0
2017-Aug-09 06:30N 37°57' E 023°37'0 0.0
2017-Aug-09 06:00N 37°57' E 023°37'0 0.0
2017-Aug-09 05:30N 37°57' E 023°37'0 0.0
2017-Aug-09 05:00N 37°57' E 023°37'0 0.1
2017-Aug-09 04:30N 37°57' E 023°37'4 7.0
2017-Aug-09 04:00N 37°58' E 023°33'4 8.0
2017-Aug-09 03:31N 38°02' E 023°32'0 0.2
2017-Aug-09 03:00N 38°02' E 023°32'0 0.0
2017-Aug-09 02:30N 38°02' E 023°32'0 0.0
2017-Aug-08 16:30N 38°02' E 023°32'0 1.0
2017-Aug-08 16:00N 38°02' E 023°31'4 7.5
2017-Aug-08 15:30N 38°00' E 023°27'2 5.0
2017-Aug-08 15:01N 37°58' E 023°26'4 7.5
2017-Aug-08 14:30N 37°57' E 023°21'4 7.8
2017-Aug-08 14:00N 37°56' E 023°16'4 7.6
2017-Aug-08 13:27N 37°55' E 023°11'  

Dump ship's entire track history